Time;durP1;ratioP1;P1;durP2;ratioP2;P2;SDS_P1;SDS_P2;PMS_P1;PMS_P2;Temp;Humidity;BMP_temperature;BMP_pressure;BME280_temperature;BME280_humidity;BME280_pressure;Samples;Min_cycle;Max_cycle;Signal;HPM_P1;HPM_P2
2022/10/10 00:00:44;;;;;;;7.88;2.53;;;10.40;99.90;;;;;;5011622;28;20521;-77
2022/10/10 00:03:09;;;;;;;;;;;10.30;99.90;;;;;;5011964;28;20081;-77
2022/10/10 00:05:36;;;;;;;13.75;6.35;;;10.30;99.90;;;;;;5011705;28;19988;-77
2022/10/10 00:08:03;;;;;;;9.30;2.22;;;10.20;99.90;;;;;;5011260;28;20033;-76
2022/10/10 00:10:29;;;;;;;12.45;5.30;;;10.30;99.90;;;;;;5011828;28;20026;-77
2022/10/10 00:12:54;;;;;;;;;;;10.30;99.90;;;;;;5011724;28;20499;-77
2022/10/10 00:15:20;;;;;;;10.07;4.22;;;10.30;99.90;;;;;;5010148;28;20329;-77
2022/10/10 00:17:47;;;;;;;14.18;4.75;;;10.30;99.90;;;;;;5010233;28;20025;-77
2022/10/10 00:20:15;;;;;;;10.40;3.80;;;10.30;99.90;;;;;;5009453;28;20044;-77
2022/10/10 00:22:40;;;;;;;17.38;4.82;;;10.20;99.90;;;;;;5009862;28;20088;-77
2022/10/10 00:25:06;;;;;;;;;;;10.20;99.90;;;;;;5010527;28;20486;-77
2022/10/10 00:27:32;;;;;;;15.35;3.10;;;10.20;99.90;;;;;;5011374;28;19909;-77
2022/10/10 00:29:58;;;;;;;;;;;10.10;99.90;;;;;;5011715;28;20065;-76
2022/10/10 00:32:23;;;;;;;9.07;3.17;;;10.10;99.90;;;;;;5011165;28;19917;-77
2022/10/10 00:34:49;;;;;;;;;;;10.10;99.90;;;;;;5010293;28;20103;-76
2022/10/10 00:37:15;;;;;;;6.82;1.90;;;10.10;99.90;;;;;;5011526;28;19916;-77
2022/10/10 00:39:40;;;;;;;;;;;10.00;99.90;;;;;;5011428;28;20022;-76
2022/10/10 00:42:06;;;;;;;7.30;2.35;;;10.10;99.90;;;;;;5009739;28;20344;-76
2022/10/10 00:44:31;;;;;;;;;;;10.10;99.90;;;;;;5026821;28;20057;-77
2022/10/10 00:46:57;;;;;;;3.47;1.23;;;10.10;99.90;;;;;;5010953;28;20000;-77
2022/10/10 00:49:27;;;;;;;5.22;1.27;;;10.00;99.90;;;;;;5010558;28;20406;-77
2022/10/10 00:51:56;;;;;;;6.57;1.33;;;9.90;99.90;;;;;;5009060;28;20498;-76
2022/10/10 00:54:23;;;;;;;5.43;1.83;;;9.90;99.90;;;;;;5011483;28;20103;-76
2022/10/10 00:56:59;;;;;;;4.22;1.77;;;9.80;99.90;;;;;;5009207;28;20033;-77
2022/10/10 00:59:26;;;;;;;5.90;2.17;;;9.70;99.90;;;;;;5008591;28;20069;-77
2022/10/10 01:01:51;;;;;;;4.20;1.25;;;9.70;99.90;;;;;;5009798;28;20495;-77
2022/10/10 01:04:32;;;;;;;;;;;9.60;99.90;;;;;;5010532;28;20032;-77
2022/10/10 01:07:00;;;;;;;2.70;1.20;;;9.50;99.90;;;;;;5008779;28;19909;-77
2022/10/10 01:09:27;;;;;;;7.05;1.30;;;9.40;99.90;;;;;;5008499;28;20076;-75
2022/10/10 01:12:20;;;;;;;3.30;1.20;;;9.30;99.90;;;;;;5009868;28;20030;-77
2022/10/10 01:15:15;;;;;;;3.63;1.40;;;9.30;99.90;;;;;;4982793;28;20045;-76
2022/10/10 01:17:51;;;;;;;5.07;2.13;;;9.30;99.90;;;;;;5008494;28;20049;-74
2022/10/10 01:20:22;;;;;;;5.23;1.37;;;9.20;99.90;;;;;;5010431;28;20030;-76
2022/10/10 01:23:23;;;;;;;2.97;1.40;;;9.20;99.90;;;;;;5010300;28;20273;-74
2022/10/10 01:25:52;;;;;;;5.53;1.05;;;9.10;99.90;;;;;;5009287;28;20038;-74
2022/10/10 01:28:42;;;;;;;3.78;1.10;;;9.00;99.90;;;;;;5010010;28;20084;-73
2022/10/10 01:31:11;;;;;;;2.83;1.13;;;8.90;99.90;;;;;;5008386;28;20121;-74
2022/10/10 01:33:58;;;;;;;8.38;1.40;;;8.90;99.90;;;;;;5010416;28;20136;-73
2022/10/10 01:36:52;;;;;;;3.75;1.25;;;8.80;99.90;;;;;;5010103;28;20181;-74
2022/10/10 01:39:22;;;;;;;5.55;1.30;;;8.70;99.90;;;;;;5008160;28;20041;-74
2022/10/10 01:42:02;;;;;;;3.22;1.20;;;8.70;99.90;;;;;;5010381;28;20101;-74
2022/10/10 01:44:28;;;;;;;5.05;1.33;;;8.70;99.90;;;;;;5010043;28;20053;-73
2022/10/10 01:46:53;;;;;;;;;;;8.60;99.90;;;;;;5010348;28;20029;-74
2022/10/10 01:49:23;;;;;;;8.00;1.33;;;8.60;99.90;;;;;;5009744;28;19909;-73
2022/10/10 01:52:17;;;;;;;2.55;1.02;;;8.60;99.90;;;;;;5008874;28;20179;-74
2022/10/10 01:55:21;;;;;;;2.95;1.48;;;8.60;99.90;;;;;;5009840;28;20073;-73
2022/10/10 01:58:01;;;;;;;13.38;1.13;;;8.50;99.90;;;;;;5008732;28;20029;-74
2022/10/10 02:00:27;;;;;;;9.40;1.73;;;8.50;99.90;;;;;;5008749;28;20034;-73
2022/10/10 02:03:00;;;;;;;5.50;2.40;;;8.50;99.90;;;;;;5009670;28;20050;-73
2022/10/10 02:05:46;;;;;;;4.32;1.30;;;8.50;99.90;;;;;;5010073;28;20084;-74
2022/10/10 02:08:24;;;;;;;2.88;1.23;;;8.50;99.90;;;;;;5009553;28;20025;-74
2022/10/10 02:10:59;;;;;;;3.13;1.23;;;8.50;99.90;;;;;;5013279;28;20074;-74
2022/10/10 02:13:31;;;;;;;9.35;1.52;;;8.50;99.90;;;;;;5014160;28;20057;-74
2022/10/10 02:15:59;;;;;;;5.38;1.58;;;8.50;99.90;;;;;;5008159;28;20030;-73
2022/10/10 02:18:32;;;;;;;4.95;1.60;;;8.50;99.90;;;;;;5017299;28;20644;-74
2022/10/10 02:21:01;;;;;;;5.20;1.70;;;8.50;99.90;;;;;;5027495;28;20033;-74
2022/10/10 02:23:26;;;;;;;6.40;2.15;;;8.50;99.90;;;;;;5028982;28;20120;-74
2022/10/10 02:25:54;;;;;;;;;;;8.50;99.90;;;;;;5028220;28;20191;-74
2022/10/10 02:28:43;;;;;;;3.17;0.95;;;8.50;99.90;;;;;;5029474;28;20424;-74
2022/10/10 02:31:13;;;;;;;5.03;1.10;;;8.50;99.90;;;;;;5029326;28;20047;-73
2022/10/10 02:33:47;;;;;;;5.10;1.20;;;8.50;99.90;;;;;;5029287;28;20604;-73
2022/10/10 02:36:14;;;;;;;9.52;1.30;;;8.60;99.90;;;;;;5028035;28;20045;-73
2022/10/10 02:38:42;;;;;;;4.32;1.10;;;8.70;99.90;;;;;;5027864;28;20028;-73
2022/10/10 02:41:10;;;;;;;5.75;1.90;;;8.80;99.90;;;;;;5028142;28;20400;-73
2022/10/10 02:43:36;;;;;;;5.45;1.98;;;8.70;99.90;;;;;;5031677;28;20035;-74
2022/10/10 02:46:06;;;;;;;5.55;2.10;;;8.80;99.90;;;;;;5031960;28;20499;-73
2022/10/10 02:48:32;;;;;;;3.47;1.10;;;8.70;99.90;;;;;;5033288;28;20487;-74
2022/10/10 02:50:58;;;;;;;;;;;8.70;99.90;;;;;;5032103;28;20024;-74
2022/10/10 02:53:24;;;;;;;2.83;1.08;;;8.70;99.90;;;;;;5032930;28;19913;-74
2022/10/10 02:55:49;;;;;;;;;;;8.50;99.90;;;;;;5033389;28;20103;-73
2022/10/10 02:58:15;;;;;;;2.47;1.10;;;8.50;99.90;;;;;;5032642;28;19909;-73
2022/10/10 03:00:40;;;;;;;;;;;8.40;99.90;;;;;;5033453;28;20479;-74
2022/10/10 03:03:06;;;;;;;4.95;1.10;;;8.30;99.90;;;;;;5033084;28;20431;-74
2022/10/10 03:05:31;;;;;;;;;;;8.30;99.90;;;;;;5033132;28;20374;-73
2022/10/10 03:07:57;;;;;;;4.03;1.27;;;8.20;99.90;;;;;;5032556;28;19952;-73
2022/10/10 03:10:23;;;;;;;;;;;8.20;99.90;;;;;;5033397;28;20022;-74
2022/10/10 03:12:48;;;;;;;4.30;1.58;;;8.20;99.90;;;;;;5032344;28;19904;-74
2022/10/10 03:15:14;;;;;;;;;;;8.10;99.90;;;;;;5033956;28;20044;-74
2022/10/10 03:17:40;;;;;;;4.35;1.83;;;8.10;99.90;;;;;;5031985;28;19909;-74
2022/10/10 03:20:06;;;;;;;;;;;8.10;99.90;;;;;;5035256;28;20033;-73
2022/10/10 03:22:31;;;;;;;5.03;1.42;;;8.20;99.90;;;;;;5031358;28;19956;-73
2022/10/10 03:24:57;;;;;;;;;;;8.10;99.90;;;;;;5031922;28;20036;-73
2022/10/10 03:27:22;;;;;;;5.80;1.30;;;8.10;99.90;;;;;;5032544;28;19905;-73
2022/10/10 03:29:48;;;;;;;;;;;8.10;99.90;;;;;;5031384;28;20029;-73
2022/10/10 03:32:13;;;;;;;5.05;1.45;;;8.10;99.90;;;;;;5031925;28;19962;-73
2022/10/10 03:34:39;;;;;;;3.72;1.23;;;8.00;99.90;;;;;;5030779;28;20037;-74
2022/10/10 03:37:05;;;;;;;4.60;1.10;;;8.10;99.90;;;;;;5032197;28;20108;-74
2022/10/10 03:39:30;;;;;;;;;;;8.00;99.90;;;;;;5033060;28;20386;-73
2022/10/10 03:41:56;;;;;;;7.80;1.48;;;7.90;99.90;;;;;;5031449;28;20005;-74
2022/10/10 03:44:21;;;;;;;;;;;7.80;99.90;;;;;;5034173;28;21119;-73
2022/10/10 03:46:47;;;;;;;3.10;1.25;;;7.80;99.90;;;;;;5030465;28;19913;-73
2022/10/10 03:49:12;;;;;;;3.95;1.15;;;7.80;99.90;;;;;;5030790;28;20037;-73
2022/10/10 03:51:38;;;;;;;;;;;7.60;99.90;;;;;;5031014;28;20438;-74
2022/10/10 03:54:07;;;;;;;2.75;1.10;;;7.50;99.90;;;;;;5030690;28;19913;-73
2022/10/10 03:56:32;;;;;;;3.17;1.08;;;7.50;99.90;;;;;;5032505;28;20017;-73
2022/10/10 03:58:59;;;;;;;;;;;7.50;99.90;;;;;;5030430;28;20745;-74
2022/10/10 04:01:28;;;;;;;5.07;1.20;;;7.50;99.90;;;;;;5031928;28;20432;-73
2022/10/10 04:03:54;;;;;;;2.90;1.08;;;7.40;99.90;;;;;;5026050;28;20541;-73
2022/10/10 04:06:20;;;;;;;;;;;7.40;99.90;;;;;;5031967;28;20281;-74
2022/10/10 04:08:46;;;;;;;2.55;1.15;;;7.30;99.90;;;;;;5030222;28;19916;-73
2022/10/10 04:11:11;;;;;;;;;;;7.30;99.90;;;;;;5030707;28;20108;-72
2022/10/10 04:13:37;;;;;;;2.35;1.10;;;7.30;99.90;;;;;;5030253;28;20381;-74
2022/10/10 04:16:02;;;;;;;;;;;7.30;99.90;;;;;;5030575;28;20083;-72
2022/10/10 04:18:28;;;;;;;4.45;1.00;;;7.30;99.90;;;;;;5030074;28;19952;-74
2022/10/10 04:20:54;;;;;;;;;;;7.20;99.90;;;;;;5031988;28;20025;-73
2022/10/10 04:23:19;;;;;;;4.80;1.20;;;7.30;99.90;;;;;;5030162;28;19905;-73
2022/10/10 04:25:46;;;;;;;;;;;7.20;99.90;;;;;;5031706;28;20026;-73
2022/10/10 04:28:13;;;;;;;3.53;1.40;;;7.20;99.90;;;;;;5031137;28;19996;-74
2022/10/10 04:30:39;;;;;;;5.63;1.20;;;7.20;99.90;;;;;;5031234;28;20025;-74
2022/10/10 04:33:05;;;;;;;;;;;7.20;99.90;;;;;;5031499;28;20037;-74
2022/10/10 04:35:31;;;;;;;3.50;1.20;;;7.20;99.90;;;;;;5029641;28;19912;-74
2022/10/10 04:37:56;;;;;;;;;;;7.20;99.90;;;;;;5031210;28;20061;-73
2022/10/10 04:40:22;;;;;;;4.57;1.35;;;7.20;99.90;;;;;;5030829;28;19962;-74
2022/10/10 04:42:48;;;;;;;;;;;7.20;99.90;;;;;;5029774;28;20029;-74
2022/10/10 04:45:13;;;;;;;6.38;1.38;;;7.20;99.90;;;;;;5030867;28;19916;-74
2022/10/10 04:47:39;;;;;;;;;;;7.20;99.90;;;;;;5031122;28;20026;-74
2022/10/10 04:50:05;;;;;;;4.80;1.60;;;7.10;99.90;;;;;;5029533;28;20000;-73
2022/10/10 04:52:31;;;;;;;7.65;1.50;;;7.10;99.90;;;;;;5029259;28;20099;-74
2022/10/10 04:54:57;;;;;;;3.85;1.70;;;7.10;99.90;;;;;;5030993;28;20061;-73
2022/10/10 04:57:23;;;;;;;;;;;7.00;99.90;;;;;;5030264;28;20465;-76
2022/10/10 04:59:49;;;;;;;6.30;1.58;;;7.00;99.90;;;;;;5029422;28;19940;-73
2022/10/10 05:02:14;;;;;;;;;;;7.00;99.90;;;;;;5030916;28;20080;-74
2022/10/10 05:04:40;;;;;;;7.15;1.48;;;6.90;99.90;;;;;;5029553;28;20016;-74
2022/10/10 05:07:06;;;;;;;;;;;7.00;99.90;;;;;;5029654;28;20065;-74
2022/10/10 05:09:32;;;;;;;10.20;1.17;;;6.90;99.90;;;;;;5030799;28;20659;-73
2022/10/10 05:11:59;;;;;;;4.78;1.55;;;6.80;99.90;;;;;;5029212;28;20027;-73
2022/10/10 05:14:25;;;;;;;6.20;1.20;;;6.80;99.90;;;;;;5030326;28;20038;-74
2022/10/10 05:16:51;;;;;;;3.25;1.20;;;6.70;99.90;;;;;;5030720;28;20474;-73
2022/10/10 05:19:16;;;;;;;;;;;6.70;99.90;;;;;;5031199;28;20204;-73
2022/10/10 05:21:42;;;;;;;2.42;0.90;;;6.70;99.90;;;;;;5029767;28;19962;-74
2022/10/10 05:24:08;;;;;;;;;;;6.70;99.90;;;;;;5029807;28;20036;-74
2022/10/10 05:26:34;;;;;;;5.53;1.33;;;6.80;99.90;;;;;;5030649;28;20026;-74
2022/10/10 05:29:00;;;;;;;;;;;6.80;99.90;;;;;;5031207;28;20032;-73
2022/10/10 05:31:26;;;;;;;7.90;1.70;;;6.90;99.90;;;;;;5030869;28;19936;-74
2022/10/10 05:33:52;;;;;;;;;;;7.00;99.90;;;;;;5030654;28;20537;-73
2022/10/10 05:36:20;;;;;;;6.63;1.50;;;7.10;99.90;;;;;;5030825;28;20296;-73
2022/10/10 05:38:46;;;;;;;11.88;1.58;;;7.20;99.90;;;;;;5030723;28;20025;-74
2022/10/10 05:41:11;;;;;;;;;;;7.30;99.90;;;;;;5033472;28;20036;-74
2022/10/10 05:43:38;;;;;;;10.02;1.98;;;7.40;99.90;;;;;;5029523;28;19909;-73
2022/10/10 05:46:03;;;;;;;;;;;7.50;99.90;;;;;;5030694;28;20075;-73
2022/10/10 05:48:29;;;;;;;4.90;1.30;;;7.50;99.90;;;;;;5028556;28;19909;-74
2022/10/10 05:50:55;;;;;;;;;;;7.60;99.90;;;;;;5030553;28;20033;-73
2022/10/10 05:53:22;;;;;;;3.42;1.00;;;7.80;99.90;;;;;;5028539;28;20028;-73
2022/10/10 05:55:48;;;;;;;2.78;0.98;;;7.90;99.90;;;;;;5028474;28;20136;-74
2022/10/10 05:58:13;;;;;;;;;;;8.00;99.90;;;;;;5028692;28;20040;-73
2022/10/10 06:00:41;;;;;;;3.33;1.45;;;8.10;99.90;;;;;;5029582;28;19913;-73
2022/10/10 06:03:11;;;;;;;3.90;0.93;;;8.30;99.90;;;;;;5028265;28;20049;-74
2022/10/10 06:05:37;;;;;;;3.03;1.30;;;8.50;99.90;;;;;;5029618;28;20029;-76
2022/10/10 06:08:02;;;;;;;;;;;8.80;99.90;;;;;;5028586;28;20048;-75
2022/10/10 06:10:28;;;;;;;14.32;2.17;;;9.10;99.90;;;;;;5028519;28;19905;-76
2022/10/10 06:12:54;;;;;;;;;;;9.50;99.90;;;;;;5028523;28;20041;-76
2022/10/10 06:15:19;;;;;;;3.85;1.90;;;10.00;99.90;;;;;;5028803;28;19913;-76
2022/10/10 06:17:45;;;;;;;;;;;10.50;99.90;;;;;;5028901;28;20029;-76
2022/10/10 06:20:14;;;;;;;5.25;2.15;;;10.80;99.90;;;;;;5027523;28;20427;-74
2022/10/10 06:22:42;;;;;;;7.55;2.63;;;11.30;99.90;;;;;;5027880;28;20022;-74
2022/10/10 06:25:08;;;;;;;12.57;3.08;;;11.90;99.90;;;;;;5028706;28;20029;-74
2022/10/10 06:27:34;;;;;;;;;;;12.60;99.90;;;;;;5029490;28;20029;-74
2022/10/10 06:29:59;;;;;;;11.35;1.83;;;13.20;99.90;;;;;;5028858;28;19909;-77
2022/10/10 06:32:25;;;;;;;;;;;13.90;99.90;;;;;;5027958;28;20040;-76
2022/10/10 06:34:51;;;;;;;4.95;1.10;;;14.70;99.90;;;;;;5027297;28;19998;-74
2022/10/10 06:37:16;;;;;;;;;;;15.30;99.90;;;;;;5029179;28;20101;-74
2022/10/10 06:39:42;;;;;;;3.92;1.38;;;16.10;99.30;;;;;;5028891;28;19905;-75
2022/10/10 06:42:08;;;;;;;10.73;1.17;;;16.60;94.70;;;;;;5027456;28;20516;-74
2022/10/10 06:44:33;;;;;;;4.35;0.90;;;17.30;93.60;;;;;;5028771;28;20069;-74
2022/10/10 06:47:10;;;;;;;1.35;0.55;;;18.00;85.90;;;;;;5028682;28;20034;-75
2022/10/10 06:49:36;;;;;;;2.00;0.60;;;18.70;71.80;;;;;;5028822;28;20057;-74
2022/10/10 06:52:01;;;;;;;2.33;0.68;;;18.70;67.10;;;;;;5027477;28;20124;-74
2022/10/10 06:54:35;;;;;;;2.33;0.77;;;18.80;66.30;;;;;;5028809;28;20124;-75
2022/10/10 06:57:00;;;;;;;8.85;0.80;;;18.40;64.80;;;;;;5028632;28;20079;-75
2022/10/10 06:59:26;;;;;;;4.93;0.73;;;18.10;65.10;;;;;;5028236;28;20418;-74
2022/10/10 07:01:52;;;;;;;3.45;0.65;;;18.10;64.40;;;;;;5027340;28;20436;-75
2022/10/10 07:04:18;;;;;;;3.33;0.75;;;17.80;64.40;;;;;;5026664;28;20494;-77
2022/10/10 07:06:46;;;;;;;5.47;0.50;;;17.50;66.60;;;;;;5028417;28;20399;-74
2022/10/10 07:09:12;;;;;;;2.22;0.63;;;17.60;66.50;;;;;;5028610;28;20037;-74
2022/10/10 07:11:40;;;;;;;2.85;0.50;;;17.30;64.90;;;;;;5028412;28;20037;-74
2022/10/10 07:14:06;;;;;;;4.65;0.70;;;16.90;66.00;;;;;;5026942;28;20125;-77
2022/10/10 07:16:32;;;;;;;3.40;0.50;;;16.80;68.10;;;;;;5028375;28;20604;-76
2022/10/10 07:18:58;;;;;;;5.28;0.50;;;16.60;70.10;;;;;;5028798;28;20021;-76
2022/10/10 07:21:24;;;;;;;2.45;0.60;;;16.70;69.90;;;;;;5026845;28;20034;-76
2022/10/10 07:23:49;;;;;;;5.60;0.40;;;16.60;71.30;;;;;;5026758;28;20409;-76
2022/10/10 07:26:19;;;;;;;2.03;0.50;;;16.50;70.60;;;;;;5028513;28;20034;-76
2022/10/10 07:28:48;;;;;;;5.45;0.50;;;16.40;69.60;;;;;;5029093;28;20052;-76
2022/10/10 07:31:14;;;;;;;2.25;0.50;;;16.20;71.80;;;;;;5030681;28;20541;-77
2022/10/10 07:33:49;;;;;;;8.88;0.70;;;15.90;73.70;;;;;;5031778;28;20025;-76
2022/10/10 07:36:15;;;;;;;4.07;0.80;;;15.80;73.70;;;;;;5031834;28;20099;-74
2022/10/10 07:38:41;;;;;;;5.68;0.85;;;15.60;74.50;;;;;;5030737;28;20619;-76
2022/10/10 07:41:10;;;;;;;2.42;0.63;;;15.50;74.40;;;;;;5030483;28;20029;-77
2022/10/10 07:43:36;;;;;;;5.35;1.20;;;15.50;75.20;;;;;;5031948;28;20018;-74
2022/10/10 07:46:03;;;;;;;5.20;0.98;;;15.50;75.30;;;;;;5030431;28;20104;-74
2022/10/10 07:48:30;;;;;;;14.65;8.70;;;15.50;77.00;;;;;;5031413;28;20045;-74
2022/10/10 07:50:56;;;;;;;8.27;3.50;;;15.40;76.00;;;;;;5031709;28;20122;-74
2022/10/10 07:53:21;;;;;;;7.65;4.13;;;15.50;77.40;;;;;;5030282;28;20071;-74
2022/10/10 07:55:47;;;;;;;;;;;15.50;76.80;;;;;;5030583;28;20581;-74
2022/10/10 07:58:13;;;;;;;9.57;5.20;;;15.50;75.40;;;;;;5031589;28;19915;-74
2022/10/10 08:00:40;;;;;;;6.45;2.00;;;15.70;76.30;;;;;;5030440;28;20033;-74
2022/10/10 08:03:08;;;;;;;4.25;0.80;;;16.00;77.00;;;;;;5030244;28;20053;-76
2022/10/10 08:05:33;;;;;;;3.83;0.73;;;16.70;75.10;;;;;;5031993;28;20029;-76
2022/10/10 08:07:59;;;;;;;2.03;0.68;;;17.30;74.50;;;;;;5031413;28;20067;-74
2022/10/10 08:10:27;;;;;;;4.93;0.80;;;17.80;71.20;;;;;;5030241;28;20529;-75
2022/10/10 08:12:53;;;;;;;3.10;0.70;;;18.40;69.70;;;;;;5029981;28;20021;-74
2022/10/10 08:15:19;;;;;;;4.43;0.73;;;18.70;65.00;;;;;;5031778;28;20037;-74
2022/10/10 08:17:44;;;;;;;6.43;0.85;;;19.00;64.50;;;;;;5030049;28;20740;-74
2022/10/10 08:20:10;;;;;;;4.80;0.68;;;19.20;62.70;;;;;;5031079;28;20574;-74
2022/10/10 08:22:36;;;;;;;5.13;0.70;;;19.50;61.80;;;;;;5031666;28;20028;-77
2022/10/10 08:25:01;;;;;;;4.60;1.15;;;19.90;60.40;;;;;;5031186;28;20068;-77
2022/10/10 08:27:27;;;;;;;10.20;1.85;;;20.20;59.70;;;;;;5031306;28;20447;-77
2022/10/10 08:29:52;;;;;;;4.35;1.20;;;20.30;58.00;;;;;;5029361;28;20524;-77
2022/10/10 08:32:18;;;;;;;3.38;0.80;;;20.50;59.30;;;;;;5030823;28;20481;-75
2022/10/10 08:34:44;;;;;;;2.97;0.70;;;21.00;58.20;;;;;;5029284;28;20049;-73
2022/10/10 08:37:09;;;;;;;3.72;1.20;;;21.40;56.90;;;;;;5029108;28;20021;-74
2022/10/10 08:39:35;;;;;;;4.28;0.77;;;21.40;54.50;;;;;;5030219;28;20458;-74
2022/10/10 08:42:02;;;;;;;4.05;0.90;;;21.40;54.20;;;;;;5028933;28;20482;-75
2022/10/10 08:44:34;;;;;;;3.10;1.00;;;21.80;54.00;;;;;;5029108;28;20057;-74
2022/10/10 08:47:04;;;;;;;4.22;2.05;;;21.40;53.50;;;;;;5030620;28;20034;-75
2022/10/10 08:49:37;;;;;;;8.48;3.35;;;21.60;53.80;;;;;;5030104;28;20108;-73
2022/10/10 08:52:26;;;;;;;8.27;2.10;;;21.90;51.80;;;;;;5030379;28;20021;-75
2022/10/10 08:54:53;;;;;;;3.55;1.23;;;22.00;50.20;;;;;;5030078;28;20525;-74
2022/10/10 08:57:24;;;;;;;6.13;0.90;;;21.60;50.40;;;;;;5028982;28;20101;-75
2022/10/10 08:59:53;;;;;;;2.47;0.80;;;21.30;50.10;;;;;;5030134;28;20100;-75
2022/10/10 09:02:49;;;;;;;2.10;0.80;;;21.30;51.20;;;;;;5028674;28;20052;-75
2022/10/10 09:05:30;;;;;;;2.23;0.50;;;21.30;50.80;;;;;;5030192;28;20026;-75
2022/10/10 09:08:37;;;;;;;4.03;0.90;;;21.50;49.50;;;;;;5028790;28;20567;-74
2022/10/10 09:11:11;;;;;;;4.22;0.70;;;21.30;49.40;;;;;;5029187;28;20018;-75
2022/10/10 09:13:59;;;;;;;4.60;0.93;;;21.40;50.50;;;;;;5029796;28;20215;-75
2022/10/10 09:17:12;;;;;;;3.63;0.93;;;21.80;48.60;;;;;;5028800;28;20043;-75
2022/10/10 09:19:45;;;;;;;3.30;1.10;;;22.10;49.30;;;;;;5026358;28;20528;-75
2022/10/10 09:22:19;;;;;;;4.35;0.85;;;22.40;49.70;;;;;;5028280;28;20021;-74
2022/10/10 09:24:52;;;;;;;5.78;1.10;;;22.50;48.00;;;;;;5029611;28;20382;-74
2022/10/10 09:27:32;;;;;;;3.42;0.93;;;22.50;47.50;;;;;;5029425;28;20029;-75
2022/10/10 09:30:03;;;;;;;2.60;0.90;;;22.10;47.40;;;;;;5028201;28;20080;-75
2022/10/10 09:32:38;;;;;;;4.85;1.08;;;21.80;49.40;;;;;;5028968;28;20033;-75
2022/10/10 09:35:25;;;;;;;8.82;1.10;;;22.00;49.20;;;;;;5029426;28;20068;-74
2022/10/10 09:38:16;;;;;;;2.90;0.98;;;22.00;49.50;;;;;;5028380;28;20025;-75
2022/10/10 09:40:48;;;;;;;7.30;1.23;;;22.00;49.30;;;;;;5028157;28;20033;-75
2022/10/10 09:43:19;;;;;;;9.25;1.40;;;22.00;50.70;;;;;;5030272;28;20025;-75
2022/10/10 09:45:52;;;;;;;4.85;1.25;;;22.30;50.20;;;;;;5028133;28;20158;-75
2022/10/10 09:48:30;;;;;;;4.38;1.08;;;22.50;49.10;;;;;;5028983;28;20026;-74
2022/10/10 09:50:55;;;;;;;4.82;1.25;;;22.90;49.50;;;;;;5028284;28;20526;-75
2022/10/10 09:53:21;;;;;;;7.70;1.67;;;23.20;49.10;;;;;;5027659;28;20609;-75
2022/10/10 09:55:49;;;;;;;6.72;2.10;;;23.60;47.60;;;;;;5029272;28;20107;-75
2022/10/10 09:58:24;;;;;;;11.10;2.17;;;23.60;46.10;;;;;;5029318;28;20031;-75
2022/10/10 10:00:49;;;;;;;12.35;3.88;;;23.50;44.80;;;;;;5027758;28;20033;-75
2022/10/10 10:03:18;;;;;;;5.55;1.85;;;23.50;46.60;;;;;;5027658;28;20525;-74
2022/10/10 10:06:00;;;;;;;9.40;1.63;;;23.30;45.90;;;;;;5028139;28;20104;-75
2022/10/10 10:08:32;;;;;;;7.00;1.92;;;23.60;44.60;;;;;;5027197;28;20039;-75
2022/10/10 10:10:58;;;;;;;4.97;1.45;;;23.30;44.20;;;;;;5029355;28;20471;-74
2022/10/10 10:13:30;;;;;;;11.07;2.22;;;23.10;45.80;;;;;;5027485;28;20448;-75
2022/10/10 10:16:03;;;;;;;8.07;1.48;;;22.80;47.00;;;;;;5029047;28;20055;-75
2022/10/10 10:18:36;;;;;;;6.38;1.08;;;22.10;45.90;;;;;;5027672;28;20112;-74
2022/10/10 10:21:01;;;;;;;10.98;1.40;;;21.20;45.00;;;;;;5029135;28;20061;-74
2022/10/10 10:23:33;;;;;;;6.05;2.10;;;20.30;48.10;;;;;;5029695;28;20061;-74
2022/10/10 10:26:21;;;;;;;6.05;2.45;;;19.80;50.00;;;;;;5027516;28;20072;-74
2022/10/10 10:28:48;;;;;;;3.63;1.15;;;19.80;49.50;;;;;;5027419;28;20040;-74
2022/10/10 10:31:34;;;;;;;4.63;1.65;;;19.40;48.30;;;;;;5027521;28;20394;-74
2022/10/10 10:34:10;;;;;;;5.85;2.15;;;19.30;50.90;;;;;;5027260;28;20029;-74
2022/10/10 10:36:48;;;;;;;12.00;1.73;;;19.10;50.90;;;;;;5027911;28;20846;-74
2022/10/10 10:39:37;;;;;;;5.45;1.30;;;18.90;51.90;;;;;;5027530;28;20481;-74
2022/10/10 10:42:31;;;;;;;5.13;1.40;;;18.90;47.00;;;;;;5025141;28;20462;-74
2022/10/10 10:45:13;;;;;;;7.88;0.70;;;18.80;49.10;;;;;;5029320;28;20030;-75
2022/10/10 10:47:49;;;;;;;3.67;1.17;;;18.60;48.70;;;;;;5027318;28;20150;-76
2022/10/10 10:50:24;;;;;;;5.30;0.90;;;18.60;48.80;;;;;;5028067;28;20128;-74
2022/10/10 10:52:53;;;;;;;5.43;1.42;;;18.60;48.60;;;;;;5028665;28;20033;-75
2022/10/10 10:55:37;;;;;;;7.65;1.83;;;18.40;48.00;;;;;;5029013;28;20065;-76
2022/10/10 10:58:23;;;;;;;6.22;1.73;;;18.30;48.20;;;;;;5027039;28;20029;-76
2022/10/10 11:01:03;;;;;;;10.18;1.88;;;18.30;49.10;;;;;;5028688;28;20029;-76
2022/10/10 11:03:57;;;;;;;4.18;0.75;;;18.30;50.30;;;;;;5031411;28;20052;-76
2022/10/10 11:06:46;;;;;;;6.47;1.25;;;18.40;46.80;;;;;;5030867;28;20413;-76
2022/10/10 11:09:19;;;;;;;5.88;1.20;;;18.40;49.00;;;;;;5032714;28;20530;-76
2022/10/10 11:11:59;;;;;;;8.48;1.80;;;18.50;50.00;;;;;;5031000;28;20022;-76
2022/10/10 11:14:33;;;;;;;4.38;1.00;;;18.40;50.00;;;;;;5031046;28;20041;-76
2022/10/10 11:17:13;;;;;;;5.78;0.60;;;18.40;49.50;;;;;;5030763;28;20502;-76
2022/10/10 11:20:05;;;;;;;6.40;1.60;;;18.30;50.00;;;;;;5031729;28;20037;-76
2022/10/10 11:22:57;;;;;;;6.75;1.33;;;18.30;50.90;;;;;;5031230;28;20110;-76
2022/10/10 11:25:31;;;;;;;4.85;0.80;;;18.20;49.10;;;;;;5026291;28;20033;-76
2022/10/10 11:28:12;;;;;;;3.10;0.63;;;18.30;49.30;;;;;;5032250;28;20052;-76
2022/10/10 11:30:48;;;;;;;3.33;0.82;;;18.30;50.10;;;;;;5030493;28;20242;-76
2022/10/10 11:33:26;;;;;;;7.43;0.90;;;18.40;49.30;;;;;;5031818;28;20502;-76
2022/10/10 11:36:01;;;;;;;3.00;1.00;;;18.40;50.30;;;;;;5032382;28;20040;-76
2022/10/10 11:38:43;;;;;;;2.70;0.90;;;18.40;51.50;;;;;;5031510;28;20029;-76
2022/10/10 11:41:17;;;;;;;4.07;0.80;;;18.40;51.20;;;;;;5031818;28;20037;-76
2022/10/10 11:44:03;;;;;;;7.85;0.70;;;18.50;51.00;;;;;;5030611;28;20390;-76
2022/10/10 11:46:58;;;;;;;3.35;0.52;;;18.50;51.40;;;;;;5031637;28;20025;-76
2022/10/10 11:49:46;;;;;;;2.83;0.57;;;18.40;50.80;;;;;;5032164;28;20030;-76
2022/10/10 11:52:24;;;;;;;2.30;0.65;;;18.40;50.80;;;;;;5030302;28;20536;-76
2022/10/10 11:55:02;;;;;;;6.78;1.85;;;18.40;51.60;;;;;;5031759;28;20107;-75
2022/10/10 11:57:52;;;;;;;6.53;0.85;;;18.40;49.10;;;;;;5031241;28;20025;-77
2022/10/10 12:00:18;;;;;;;5.57;1.08;;;18.40;50.80;;;;;;5031862;28;20044;-76
2022/10/10 12:02:45;;;;;;;4.68;0.82;;;18.40;53.00;;;;;;5030030;28;20454;-76
2022/10/10 12:05:29;;;;;;;5.80;0.93;;;18.30;52.10;;;;;;5029811;28;20033;-76
2022/10/10 12:08:01;;;;;;;7.10;1.63;;;18.30;53.20;;;;;;5030955;28;20036;-76
2022/10/10 12:10:31;;;;;;;10.13;2.22;;;18.30;54.30;;;;;;5029877;28;20498;-76
2022/10/10 12:13:07;;;;;;;7.10;1.48;;;18.40;53.40;;;;;;5029789;28;20029;-76
2022/10/10 12:15:36;;;;;;;10.00;2.05;;;18.40;53.00;;;;;;5028598;28;20391;-76
2022/10/10 12:18:02;;;;;;;8.10;1.30;;;18.40;54.30;;;;;;5029915;28;20088;-76
2022/10/10 12:20:37;;;;;;;6.72;1.10;;;18.40;53.10;;;;;;5029623;28;20033;-75
2022/10/10 12:23:08;;;;;;;5.57;1.73;;;18.40;52.50;;;;;;5031415;28;20025;-76
2022/10/10 12:25:36;;;;;;;6.47;1.20;;;18.40;52.90;;;;;;5029402;28;20494;-76
2022/10/10 12:28:21;;;;;;;6.80;1.70;;;18.30;52.70;;;;;;5030774;28;20031;-76
2022/10/10 12:30:55;;;;;;;6.57;1.30;;;18.40;52.60;;;;;;5031050;28;20044;-76
2022/10/10 12:33:42;;;;;;;6.85;1.30;;;18.40;52.80;;;;;;5030686;28;20076;-76
2022/10/10 12:36:17;;;;;;;8.75;1.88;;;18.50;53.50;;;;;;5029212;28;20820;-76
2022/10/10 12:39:10;;;;;;;5.20;1.55;;;18.50;53.70;;;;;;5029591;28;20025;-75
2022/10/10 12:41:57;;;;;;;6.68;1.50;;;18.50;53.00;;;;;;5015136;28;20371;-76
2022/10/10 12:44:24;;;;;;;5.25;1.45;;;18.50;55.00;;;;;;5029271;28;20025;-76
2022/10/10 12:47:14;;;;;;;5.20;1.73;;;18.50;54.90;;;;;;5029910;28;20036;-76
2022/10/10 12:49:59;;;;;;;9.55;1.73;;;18.50;55.30;;;;;;5030587;28;20029;-75
2022/10/10 12:52:34;;;;;;;6.40;1.38;;;18.60;55.60;;;;;;5029364;28;20382;-76
2022/10/10 12:55:15;;;;;;;9.88;1.60;;;18.50;54.40;;;;;;5030252;28;20069;-76
2022/10/10 12:57:43;;;;;;;6.38;1.42;;;18.30;53.80;;;;;;5030349;28;20456;-76
2022/10/10 13:00:34;;;;;;;8.20;1.50;;;18.30;53.90;;;;;;5030007;28;20036;-77
2022/10/10 13:03:03;;;;;;;9.55;1.77;;;18.30;54.20;;;;;;5031878;28;20080;-76
2022/10/10 13:05:33;;;;;;;10.63;1.63;;;18.20;55.10;;;;;;5029304;28;20429;-75
2022/10/10 13:08:02;;;;;;;10.05;1.90;;;18.20;55.10;;;;;;5027797;28;20181;-76
2022/10/10 13:10:29;;;;;;;7.13;1.77;;;18.20;56.10;;;;;;5009267;28;20394;-76
2022/10/10 13:13:16;;;;;;;6.72;1.60;;;18.30;55.30;;;;;;5013998;28;20402;-76
2022/10/10 13:15:54;;;;;;;8.25;1.42;;;18.30;55.70;;;;;;5019954;28;20045;-76
2022/10/10 13:18:42;;;;;;;4.28;1.20;;;18.20;54.60;;;;;;5013399;28;20068;-76
2022/10/10 13:21:12;;;;;;;7.30;0.90;;;18.20;54.70;;;;;;5017912;28;20026;-76
2022/10/10 13:23:44;;;;;;;4.63;1.25;;;18.20;56.10;;;;;;5033626;28;20048;-75